Time,TemperatureF,DewpointF,PressureIn,WindDirection,WindDirectionDegrees,WindSpeedMPH,WindSpeedGustMPH,Humidity,HourlyPrecipIn,Conditions,Clouds,dailyrainin,SoftwareType,DateUTC
2013-02-27 00:00:00,40.9,39.3,29.52,ESE,116,2.0,2.0,94,0.00,,,0.00,Wunderground v.1.15,2013-02-27 05:00:00,
2013-02-27 00:30:00,40.5,38.6,29.53,East,91,2.0,2.0,93,0.00,,,0.00,Wunderground v.1.15,2013-02-27 05:30:00,
2013-02-27 01:00:00,40.0,37.9,29.54,SE,131,2.0,3.0,92,0.00,,,0.00,Wunderground v.1.15,2013-02-27 06:00:00,
2013-02-27 01:30:00,39.6,38.0,29.55,WNW,290,2.0,3.0,94,0.00,,,0.00,Wunderground v.1.15,2013-02-27 06:30:00,
2013-02-27 02:00:00,39.5,37.9,29.56,NE,53,2.0,2.0,94,0.00,,,0.00,Wunderground v.1.15,2013-02-27 07:00:00,
2013-02-27 02:30:00,39.1,37.5,29.56,ENE,64,2.0,2.0,94,0.00,,,0.01,Wunderground v.1.15,2013-02-27 07:30:00,
2013-02-27 03:00:00,38.8,36.9,29.56,NE,42,2.0,2.0,93,0.00,,,0.01,Wunderground v.1.15,2013-02-27 08:00:00,
2013-02-27 03:30:00,38.5,36.7,29.57,WNW,300,2.0,2.0,93,0.00,,,0.01,Wunderground v.1.15,2013-02-27 08:30:00,
2013-02-27 04:00:00,38.8,36.7,29.58,SE,127,2.0,6.0,92,0.00,,,0.01,Wunderground v.1.15,2013-02-27 09:00:00,
2013-02-27 04:30:00,38.7,36.9,29.58,SW,228,3.0,3.0,93,0.00,,,0.01,Wunderground v.1.15,2013-02-27 09:30:00,
2013-02-27 05:00:00,38.5,36.9,29.58,SSE,152,1.0,2.0,94,0.00,,,0.01,Wunderground v.1.15,2013-02-27 10:00:00,
2013-02-27 05:30:00,38.5,36.9,29.59,WSW,254,2.0,3.0,94,0.00,,,0.01,Wunderground v.1.15,2013-02-27 10:30:00,
2013-02-27 06:00:00,38.3,37.0,29.60,ESE,112,2.0,2.0,95,0.00,,,0.02,Wunderground v.1.15,2013-02-27 11:00:00,
2013-02-27 06:30:00,38.2,36.9,29.61,East,86,3.0,6.0,95,0.00,,,0.02,Wunderground v.1.15,2013-02-27 11:30:00,
2013-02-27 07:30:00,37.8,36.2,29.63,East,101,3.0,3.0,94,0.00,,,0.03,Wunderground v.1.15,2013-02-27 12:30:00,
2013-02-27 08:00:00,37.9,36.3,29.65,West,281,1.0,2.0,94,0.00,,,0.03,Wunderground v.1.15,2013-02-27 13:00:00,
2013-02-27 08:30:00,37.9,35.8,29.66,East,100,3.0,3.0,92,0.00,,,0.03,Wunderground v.1.15,2013-02-27 13:30:00,
2013-02-27 09:00:00,37.5,35.9,29.67,WSW,238,1.0,1.0,94,0.00,,,0.03,Wunderground v.1.15,2013-02-27 14:00:00,
2013-02-27 09:30:00,36.8,35.2,29.68,WNW,294,2.0,3.0,94,0.00,,,0.04,Wunderground v.1.15,2013-02-27 14:30:00,
2013-02-27 10:00:00,36.7,34.9,29.69,East,96,2.0,4.0,93,0.00,,,0.04,Wunderground v.1.15,2013-02-27 15:00:00,
2013-02-27 10:30:00,36.2,34.4,29.69,East,92,3.0,3.0,93,0.00,,,0.05,Wunderground v.1.15,2013-02-27 15:30:00,
2013-02-27 11:00:00,36.5,34.9,29.68,NE,48,1.0,2.0,94,0.00,,,0.05,Wunderground v.1.15,2013-02-27 16:00:00,
2013-02-27 11:30:00,36.9,34.5,29.68,ESE,105,2.0,2.0,91,0.00,,,0.05,Wunderground v.1.15,2013-02-27 16:30:00,
2013-02-27 12:00:00,37.0,34.1,29.68,SSE,160,2.0,2.0,89,0.00,,,0.05,Wunderground v.1.15,2013-02-27 17:00:00,
2013-02-27 12:30:00,37.2,33.7,29.67,SW,224,3.0,3.0,87,0.00,,,0.05,Wunderground v.1.15,2013-02-27 17:30:00,
2013-02-27 13:00:00,37.0,33.8,29.68,West,260,3.0,4.0,88,0.00,,,0.05,Wunderground v.1.15,2013-02-27 18:00:00,
2013-02-27 13:30:00,36.7,32.6,29.67,WNW,288,5.0,7.0,85,0.00,,,0.05,Wunderground v.1.15,2013-02-27 18:30:00,
2013-02-27 14:00:00,36.8,32.7,29.67,West,267,4.0,4.0,85,0.00,,,0.05,Wunderground v.1.15,2013-02-27 19:00:00,
2013-02-27 14:30:00,36.8,32.7,29.67,SW,222,3.0,6.0,85,0.00,,,0.05,Wunderground v.1.15,2013-02-27 19:30:00,
2013-02-27 15:00:00,36.8,32.4,29.67,SSW,203,3.0,3.0,84,0.00,,,0.05,Wunderground v.1.15,2013-02-27 20:00:00,
2013-02-27 15:30:00,36.8,32.1,29.68,SW,229,4.0,4.0,83,0.00,,,0.05,Wunderground v.1.15,2013-02-27 20:30:00,
2013-02-27 16:00:00,36.9,31.6,29.69,WNW,283,4.0,4.0,81,0.00,,,0.05,Wunderground v.1.15,2013-02-27 21:00:00,
2013-02-27 16:30:00,36.4,31.4,29.70,South,187,3.0,4.0,82,0.00,,,0.05,Wunderground v.1.15,2013-02-27 21:30:00,
2013-02-27 17:00:00,36.3,31.3,29.70,SE,143,4.0,4.0,82,0.00,,,0.05,Wunderground v.1.15,2013-02-27 22:00:00,
2013-02-27 17:30:00,36.0,31.3,29.70,West,269,3.0,3.0,83,0.00,,,0.05,Wunderground v.1.15,2013-02-27 22:30:00,
2013-02-27 18:00:00,35.7,31.0,29.72,SW,218,3.0,6.0,83,0.00,,,0.05,Wunderground v.1.15,2013-02-27 23:00:00,
2013-02-27 18:30:00,34.8,31.3,29.72,SW,227,2.0,2.0,87,0.00,,,0.05,Wunderground v.1.15,2013-02-27 23:30:00,
2013-02-27 19:00:00,33.9,31.6,29.72,SE,137,2.0,2.0,91,0.00,,,0.05,Wunderground v.1.15,2013-02-28 00:00:00,
2013-02-27 19:30:00,33.7,31.6,29.73,WNW,300,2.0,2.0,92,0.00,,,0.05,Wunderground v.1.15,2013-02-28 00:30:00,
2013-02-27 20:00:00,33.5,31.7,29.73,WSW,243,1.0,1.0,93,0.00,,,0.05,Wunderground v.1.15,2013-02-28 01:00:00,
2013-02-27 20:30:00,33.5,31.7,29.73,NE,46,2.0,2.0,93,0.00,,,0.05,Wunderground v.1.15,2013-02-28 01:30:00,
2013-02-27 21:00:00,33.5,31.7,29.73,South,190,2.0,2.0,93,0.00,,,0.05,Wunderground v.1.15,2013-02-28 02:00:00,
2013-02-27 21:30:00,33.4,31.6,29.73,SE,125,1.0,1.0,93,0.00,,,0.05,Wunderground v.1.15,2013-02-28 02:30:00,
2013-02-27 22:00:00,33.4,31.6,29.73,SSW,204,2.0,3.0,93,0.00,,,0.05,Wunderground v.1.15,2013-02-28 03:00:00,
2013-02-27 22:30:00,33.3,31.0,29.73,WSW,239,3.0,3.0,91,0.00,,,0.05,Wunderground v.1.15,2013-02-28 03:30:00,
2013-02-27 23:00:00,33.3,30.7,29.73,West,277,2.0,4.0,90,0.00,,,0.05,Wunderground v.1.15,2013-02-28 04:00:00,
2013-02-27 23:30:00,33.2,30.3,29.72,NE,56,2.0,2.0,89,0.00,,,0.05,Wunderground v.1.15,2013-02-28 04:30:00,